Flight Track Log - Related Links

Times and Time Zones

All times are in EDT time to prevent confusion due to time zone crossing. See the N839CA flight status page for this flight to view local times or setup timezone preferences in your user account.

Time Position Orientation Groundspeed Altitude Reporting Facility
EDT Latitude Longitude Course Direction KTS MPH feet Rate Location/Type
Sat 08:52:00 AM 41.1907 -74.0820 North  Level Estimated
Sat 08:53:00 AM 41.2619 -74.0695 North  Level Estimated
Sat 08:54:00 AM 41.3331 -74.0570 North  Level Estimated
Sat 08:55:00 AM 41.4043 -74.0444 North  Level Estimated
Sat 08:56:00 AM 41.4754 -74.0319 North  Level Estimated
Sat 08:57:00 AM 41.5466 -74.0192 North  Level Estimated
Sat 08:58:00 AM 41.6178 -74.0066 North  Level Estimated
Sat 08:59:00 AM 41.6889 -73.9940 North  Level Estimated
Sat 09:00:00 AM 41.7601 -73.9813 North  Level Estimated
Sat 09:01:00 AM 41.8312 -73.9686 North  Level Estimated
Sat 09:02:00 AM 41.9024 -73.9558 North  Level Estimated
Sat 09:03:00 AM 41.9736 -73.9430 North  Level Estimated
Sat 09:04:00 AM 42.0447 -73.9303 North  Level Estimated
Sat 09:05:00 AM 42.1159 -73.9174 North  Level Estimated
Sat 09:06:00 AM 42.1870 -73.9046 North  Level Estimated
Sat 09:07:00 AM 42.2582 -73.8917 North  Level Estimated
Sat 09:08:00 AM 42.3293 -73.8788 North  Level Estimated
Sat 09:09:00 AM 42.4005 -73.8658 North  Level Estimated
Sat 09:10:00 AM 42.4716 -73.8529 North  Level Estimated
Sat 09:11:00 AM 42.5428 -73.8399 North  Level Estimated
Sat 09:12:00 AM 42.6139 -73.8268 North  Level Estimated
Sat 09:13:00 AM 42.6851 -73.8138 North  Level Estimated
Sat 09:14:00 AM 42.7491 -73.8020 North  Level Estimated
Sat 09:15:00 AM 42.7491 -73.8020 304° West  Level Estimated
Sat 09:16:00 AM 42.7491 -73.8020 304° West  Level Estimated
Sat 09:17:00 AM 42.7491 -73.8020 304° West  Level Estimated
Sat 09:18:00 AM 42.7491 -73.8020 304° West  Level Estimated
Sat 09:19:00 AM 42.7491 -73.8020 304° West  Level Estimated
Sat 09:20:00 AM 42.7491 -73.8020 304° West  Level Estimated
Sat 09:21:00 AM 42.7491 -73.8020 304° West  Level Estimated
Sat 09:22:00 AM 42.7491 -73.8020 304° West  Level Estimated
Sat 09:23:00 AM 42.7491 -73.8020 304° West  Level Estimated
Sat 09:24:00 AM 42.7491 -73.8020 304° West  Level Estimated
Sat 09:25:00 AM 42.7491 -73.8020 304° West  Level Estimated
Sat 09:26:00 AM 42.7491 -73.8020 304° West  Level Estimated
Sat 09:27:00 AM 42.7491 -73.8020 304° West  Level Estimated
Sat 09:28:00 AM 42.7491 -73.8020 304° West  Level Estimated
Sat 09:29:00 AM 42.7491 -73.8020 304° West  Level Estimated
Sat 09:30:00 AM 42.7491 -73.8020 304° West  Level Estimated

Login

Don't have an account? Register now (free) for customized features, flight alerts, and more!